Time;durP1;ratioP1;P1;durP2;ratioP2;P2;SDS_P1;SDS_P2;PMS_P1;PMS_P2;Temp;Humidity;BMP_temperature;BMP_pressure;BME280_temperature;BME280_humidity;BME280_pressure;Samples;Min_cycle;Max_cycle;Signal;HPM_P1;HPM_P2
2021/01/10 17:58:13;;;;;;;62.53;30.63;;;;;;;-4.02;100.00;99639.47;2117596;27;20569;-76
2021/01/10 17:59:14;;;;;;;61.13;30.63;;;;;;;-4.18;100.00;99618.88;2112611;27;20693;-77
2021/01/10 18:00:16;;;;;;;65.33;32.73;;;;;;;-4.05;100.00;99638.03;2112638;27;20624;-76
2021/01/10 18:01:17;;;;;;;62.58;31.52;;;;;;;-4.04;100.00;99637.03;2111602;28;20596;-77
2021/01/10 18:02:18;;;;;;;68.22;32.40;;;;;;;-4.02;100.00;99648.09;2103074;28;20300;-77
2021/01/10 18:03:19;;;;;;;59.22;31.55;;;;;;;-4.03;100.00;99641.25;2103233;28;20354;-73
2021/01/10 18:04:21;;;;;;;58.70;32.70;;;;;;;-4.04;100.00;99651.88;2102854;28;20217;-75
2021/01/10 18:05:22;;;;;;;71.15;33.40;;;;;;;-4.01;100.00;99644.47;2102980;28;20213;-74
2021/01/10 18:06:24;;;;;;;65.80;33.93;;;;;;;-4.08;100.00;99635.00;2103198;28;20228;-74
2021/01/10 18:07:26;;;;;;;69.40;36.72;;;;;;;-4.00;100.00;99643.50;2111726;28;20244;-74
2021/01/10 18:08:27;;;;;;;71.57;34.90;;;;;;;-3.96;100.00;99645.72;2110975;28;20228;-77
2021/01/10 18:09:28;;;;;;;63.08;33.00;;;;;;;-3.97;100.00;99647.53;2111486;28;20727;-77
2021/01/10 18:10:29;;;;;;;70.77;35.30;;;;;;;-3.95;100.00;99647.34;2111454;28;20634;-75
2021/01/10 18:11:31;;;;;;;62.13;33.20;;;;;;;-3.93;100.00;99653.97;2111800;28;20737;-76
2021/01/10 18:12:35;;;;;;;60.95;33.28;;;;;;;-3.93;100.00;99650.56;2120722;27;20674;-74
2021/01/10 18:13:36;;;;;;;63.90;32.90;;;;;;;-3.93;100.00;99651.38;2111095;28;20216;-75
2021/01/10 18:14:38;;;;;;;59.58;32.15;;;;;;;-3.95;100.00;99650.75;2111106;28;20220;-76
2021/01/10 18:15:38;;;;;;;58.28;32.42;;;;;;;-4.03;100.00;99638.66;2110978;28;20229;-73
2021/01/10 18:16:40;;;;;;;62.60;32.47;;;;;;;-3.97;100.00;99644.13;2102919;28;20664;-73
2021/01/10 18:17:41;;;;;;;62.97;33.40;;;;;;;-4.02;100.00;99637.66;2102851;28;20245;-73
2021/01/10 18:18:42;;;;;;;58.10;32.33;;;;;;;-4.04;100.00;99639.66;2111613;28;21852;-76
2021/01/10 18:19:44;;;;;;;64.35;32.78;;;;;;;-3.99;100.00;99650.34;2111238;28;20221;-77
2021/01/10 18:20:45;;;;;;;65.18;33.95;;;;;;;-3.96;100.00;99650.94;2103185;28;20217;-74
2021/01/10 18:21:46;;;;;;;65.82;34.63;;;;;;;-3.94;100.00;99651.56;2111142;28;20778;-74
2021/01/10 18:22:47;;;;;;;67.23;35.73;;;;;;;-4.06;100.00;99635.63;2110524;28;20643;-73
2021/01/10 18:23:48;;;;;;;68.78;34.75;;;;;;;-4.02;100.00;99637.66;2111540;28;20216;-74
2021/01/10 18:24:50;;;;;;;62.93;34.33;;;;;;;-3.95;100.00;99647.34;2120481;27;20227;-73
2021/01/10 18:25:51;;;;;;;67.15;35.30;;;;;;;-3.95;100.00;99647.34;2110982;28;20216;-73
2021/01/10 18:26:53;;;;;;;73.10;36.03;;;;;;;-4.04;100.00;99634.44;2111131;28;20232;-78
2021/01/10 18:27:53;;;;;;;68.05;35.53;;;;;;;-3.99;100.00;99647.72;2111303;28;20624;-74
2021/01/10 18:28:56;;;;;;;65.93;32.90;;;;;;;-3.93;100.00;99653.97;2103001;28;20222;-73
2021/01/10 18:29:56;;;;;;;62.70;33.33;;;;;;;-3.92;100.00;99652.97;2103104;28;27350;-73
2021/01/10 18:30:58;;;;;;;64.73;34.53;;;;;;;-3.99;100.00;99645.13;2102981;28;20726;-74
2021/01/10 18:31:58;;;;;;;69.13;34.05;;;;;;;-3.90;100.00;99647.59;2102905;28;20217;-73
2021/01/10 18:33:00;;;;;;;68.97;35.63;;;;;;;-3.93;100.00;99653.16;2102295;28;20221;-74
2021/01/10 18:34:00;;;;;;;67.97;35.20;;;;;;;-3.94;100.00;99654.97;2111438;28;20304;-72
2021/01/10 18:35:02;;;;;;;74.00;35.27;;;;;;;-3.91;100.00;99649.41;2120235;27;20220;-74
2021/01/10 18:36:04;;;;;;;73.70;36.17;;;;;;;-3.90;100.00;99661.44;2111135;28;20217;-73
2021/01/10 18:37:05;;;;;;;70.65;37.15;;;;;;;-3.95;100.00;99647.34;2102512;28;20218;-73
2021/01/10 18:38:07;;;;;;;75.95;37.08;;;;;;;-3.90;100.00;99650.22;2111388;28;20221;-74
2021/01/10 18:39:08;;;;;;;74.95;36.38;;;;;;;-4.03;100.00;99625.63;2119867;27;20694;-74
2021/01/10 18:40:10;;;;;;;81.67;38.53;;;;;;;-4.16;100.00;99611.69;2120382;27;20630;-74
2021/01/10 18:41:11;;;;;;;86.45;40.75;;;;;;;-4.03;100.00;99630.03;2111224;28;20221;-74
2021/01/10 18:42:15;;;;;;;79.60;38.63;;;;;;;-3.91;100.00;99640.75;2105242;28;20245;-74
2021/01/10 18:43:16;;;;;;;75.50;39.47;;;;;;;-3.93;100.00;99637.53;2111486;28;20604;-73
2021/01/10 18:44:18;;;;;;;77.07;37.93;;;;;;;-3.90;100.00;99637.16;2102972;28;20221;-74
2021/01/10 18:45:19;;;;;;;77.60;38.33;;;;;;;-4.01;100.00;99625.44;2102890;28;20217;-73
2021/01/10 18:46:24;;;;;;;81.53;38.92;;;;;;;-4.05;100.00;99622.41;2102149;28;20221;-73
2021/01/10 18:47:25;;;;;;;75.50;39.08;;;;;;;-3.92;100.00;99639.13;2094531;28;20229;-73
2021/01/10 18:48:26;;;;;;;83.30;42.05;;;;;;;-3.90;100.00;99637.16;2102859;28;20225;-72
2021/01/10 18:49:27;;;;;;;83.77;40.27;;;;;;;-4.01;100.00;99620.22;2112090;28;20221;-73
2021/01/10 18:50:28;;;;;;;86.63;39.70;;;;;;;-3.93;100.00;99638.34;2111912;28;20221;-74
2021/01/10 18:51:29;;;;;;;82.05;39.10;;;;;;;-4.01;100.00;99625.44;2111796;28;20224;-72
2021/01/10 18:52:31;;;;;;;75.55;37.03;;;;;;;-3.92;100.00;99631.31;2102616;28;20221;-73
2021/01/10 18:53:32;;;;;;;83.05;39.45;;;;;;;-3.94;100.00;99635.91;2102920;28;20218;-73
2021/01/10 18:54:33;;;;;;;82.50;40.13;;;;;;;-3.94;100.00;99635.91;2102806;28;20237;-74
2021/01/10 18:55:34;;;;;;;84.80;40.67;;;;;;;-4.05;100.00;99619.00;2094598;28;20268;-74
2021/01/10 18:56:35;;;;;;;85.70;41.33;;;;;;;-4.07;100.00;99615.78;2102730;28;20259;-73
2021/01/10 18:57:36;;;;;;;88.43;43.53;;;;;;;-3.99;100.00;99628.69;2102516;28;20267;-73
2021/01/10 18:58:37;;;;;;;86.10;41.47;;;;;;;-4.06;100.00;99620.81;2100147;28;20226;-75
2021/01/10 18:59:39;;;;;;;91.47;41.88;;;;;;;-3.99;100.00;99629.47;2100890;28;20256;-73
2021/01/10 19:00:40;;;;;;;93.72;41.03;;;;;;;-3.99;100.00;99632.09;2094062;28;20233;-72
2021/01/10 19:01:41;;;;;;;91.57;41.85;;;;;;;-3.96;100.00;99633.50;2102648;28;20225;-74
2021/01/10 19:02:43;;;;;;;81.03;40.70;;;;;;;-4.00;100.00;99616.63;2102669;28;20772;-73
2021/01/10 19:03:43;;;;;;;85.50;42.03;;;;;;;-3.88;100.00;99624.75;2102709;28;20217;-73
2021/01/10 19:04:46;;;;;;;88.73;43.23;;;;;;;-3.90;100.00;99621.53;2111180;28;20232;-73
2021/01/10 19:05:47;;;;;;;83.47;42.28;;;;;;;-3.93;100.00;99616.69;2103321;28;20282;-73
2021/01/10 19:06:53;;;;;;;86.23;41.77;;;;;;;-3.88;100.00;99625.56;2102076;28;20218;-73
2021/01/10 19:07:54;;;;;;;71.28;36.38;;;;;;;-3.91;100.00;99623.34;2103059;28;20635;-73
2021/01/10 19:08:55;;;;;;;87.80;41.47;;;;;;;-3.91;100.00;99628.56;2109972;28;20348;-73
2021/01/10 19:09:56;;;;;;;79.10;40.00;;;;;;;-3.92;100.00;99628.72;2096850;28;20317;-74
2021/01/10 19:10:58;;;;;;;79.80;37.10;;;;;;;-3.98;100.00;99617.25;2096888;28;20230;-73
2021/01/10 19:11:58;;;;;;;64.05;34.47;;;;;;;-4.11;100.00;99609.31;2106124;28;20218;-73
2021/01/10 19:12:59;;;;;;;64.77;33.53;;;;;;;-4.04;100.00;99623.22;2097000;28;20276;-73
2021/01/10 19:14:00;;;;;;;70.65;35.08;;;;;;;-4.09;100.00;99618.53;2097239;28;20568;-75
2021/01/10 19:15:03;;;;;;;65.80;33.67;;;;;;;-4.06;100.00;99628.63;2096977;28;20218;-74
2021/01/10 19:16:06;;;;;;;68.13;34.20;;;;;;;-4.11;100.00;99624.94;2097030;28;20233;-74
2021/01/10 19:17:08;;;;;;;73.47;35.03;;;;;;;-4.19;100.00;99618.06;2088693;28;20300;-73
2021/01/10 19:18:09;;;;;;;72.80;35.28;;;;;;;-4.19;100.00;99612.03;2097370;28;20230;-73
2021/01/10 19:19:10;;;;;;;69.40;35.50;;;;;;;-4.12;100.00;99624.13;2097228;28;20222;-72
2021/01/10 19:20:12;;;;;;;74.35;35.53;;;;;;;-4.13;100.00;99627.75;2097130;28;20227;-73
2021/01/10 19:21:14;;;;;;;69.93;36.08;;;;;;;-4.14;100.00;99618.31;2105990;28;20678;-73
2021/01/10 19:22:19;;;;;;;81.00;37.78;;;;;;;-4.32;100.00;99597.91;2097174;28;20629;-73
2021/01/10 19:23:21;;;;;;;79.13;38.30;;;;;;;-4.15;100.00;99613.31;2097988;28;20222;-74
2021/01/10 19:24:21;;;;;;;69.80;36.65;;;;;;;-4.16;100.00;99609.88;2096662;28;20573;-75
2021/01/10 19:25:23;;;;;;;68.00;35.30;;;;;;;-4.04;100.00;99618.81;2088767;28;20214;-74
2021/01/10 19:26:24;;;;;;;74.07;36.67;;;;;;;-4.12;100.00;99605.09;2096989;28;20674;-74
2021/01/10 19:27:25;;;;;;;100.23;45.90;;;;;;;-4.03;100.00;99622.22;2104086;28;20301;-74
2021/01/10 19:28:26;;;;;;;88.60;41.72;;;;;;;-4.02;100.00;99619.41;2105840;28;20225;-74
2021/01/10 19:29:27;;;;;;;83.07;39.70;;;;;;;-3.99;100.00;99618.25;2096887;28;20334;-74
2021/01/10 19:30:30;;;;;;;83.13;41.05;;;;;;;-4.05;100.00;99613.78;2097021;28;20283;-75
2021/01/10 19:31:33;;;;;;;78.47;37.28;;;;;;;-3.92;100.00;99607.88;2106393;28;20256;-76
2021/01/10 19:32:37;;;;;;;76.50;38.00;;;;;;;-4.06;100.00;99591.34;2105955;28;20233;-76
2021/01/10 19:33:38;;;;;;;74.60;39.40;;;;;;;-3.91;100.00;99619.91;2097071;28;20222;-77
2021/01/10 19:34:41;;;;;;;78.65;39.60;;;;;;;-3.90;100.00;99606.69;2096651;28;20226;-77
2021/01/10 19:35:42;;;;;;;76.40;37.15;;;;;;;-3.87;100.00;99614.13;2097186;28;20222;-76
2021/01/10 19:36:44;;;;;;;78.50;37.22;;;;;;;-3.86;100.00;99613.13;2105216;28;20225;-76
2021/01/10 19:37:47;;;;;;;67.18;35.13;;;;;;;-3.87;100.00;99613.31;2097132;28;20684;-78
2021/01/10 19:38:48;;;;;;;74.13;37.63;;;;;;;-3.95;100.00;99603.03;2097160;28;20218;-77
2021/01/10 19:39:50;;;;;;;76.63;37.10;;;;;;;-3.89;100.00;99615.31;2105834;28;20560;-77
2021/01/10 19:40:51;;;;;;;78.68;37.72;;;;;;;-3.88;100.00;99611.72;2106112;28;20655;-76
2021/01/10 19:41:52;;;;;;;70.90;35.67;;;;;;;-3.89;100.00;99615.31;2096361;28;20719;-79
2021/01/10 19:42:53;;;;;;;62.08;33.17;;;;;;;-3.91;100.00;99614.69;2096962;28;20974;-76
2021/01/10 19:43:54;;;;;;;71.30;35.30;;;;;;;-3.97;100.00;99616.25;2096575;28;20635;-76
2021/01/10 19:44:56;;;;;;;69.50;34.33;;;;;;;-3.94;100.00;99620.28;2088403;28;20223;-75
2021/01/10 19:45:57;;;;;;;73.53;36.38;;;;;;;-3.99;100.00;99615.66;2088454;28;20233;-75
2021/01/10 19:47:02;;;;;;;66.57;34.45;;;;;;;-4.02;100.00;99597.75;2097188;28;20631;-76
2021/01/10 19:48:04;;;;;;;78.07;37.22;;;;;;;-3.93;100.00;99617.47;2105171;28;20229;-75
2021/01/10 19:49:05;;;;;;;73.90;35.33;;;;;;;-3.90;100.00;99624.13;2095186;28;20218;-76
2021/01/10 19:50:07;;;;;;;68.20;34.25;;;;;;;-3.95;100.00;99610.84;2088296;28;20697;-76
2021/01/10 19:51:15;;;;;;;64.10;33.25;;;;;;;-3.91;100.00;99612.91;2096835;28;20218;-76
2021/01/10 19:52:15;;;;;;;66.00;33.92;;;;;;;-3.89;100.00;99615.31;2105612;28;20581;-75
2021/01/10 19:53:17;;;;;;;66.77;35.80;;;;;;;-3.97;100.00;99615.47;2095531;28;20222;-75
2021/01/10 19:54:18;;;;;;;67.85;34.20;;;;;;;-3.93;100.00;99614.88;2097012;28;20313;-76
2021/01/10 19:55:19;;;;;;;66.13;34.17;;;;;;;-3.99;100.00;99608.63;2104770;28;20233;-75
2021/01/10 19:56:24;;;;;;;70.82;35.38;;;;;;;-3.97;100.00;99613.66;2106033;28;20232;-76
2021/01/10 19:57:26;;;;;;;60.17;33.42;;;;;;;-3.98;100.00;99612.03;2094047;28;20233;-76
2021/01/10 19:58:26;;;;;;;61.25;33.05;;;;;;;-4.06;100.00;99607.78;2097043;28;20239;-76
2021/01/10 19:59:28;;;;;;;64.27;34.60;;;;;;;-4.15;100.00;99600.28;2096748;28;20362;-76
2021/01/10 20:00:31;;;;;;;64.22;32.20;;;;;;;-4.14;100.00;99607.91;2096634;28;20622;-75
2021/01/10 20:01:34;;;;;;;65.40;33.90;;;;;;;-4.14;100.00;99614.91;2097519;28;20245;-75
2021/01/10 20:02:36;;;;;;;71.38;33.75;;;;;;;-4.15;100.00;99621.91;2094593;28;20249;-74
2021/01/10 20:03:37;;;;;;;65.55;33.22;;;;;;;-4.15;100.00;99621.13;2088081;28;20679;-76
2021/01/10 20:04:38;;;;;;;65.00;32.85;;;;;;;-4.26;100.00;99609.38;2096658;28;20611;-76
2021/01/10 20:05:40;;;;;;;67.80;33.73;;;;;;;-4.21;100.00;99619.25;2096534;28;20214;-75
2021/01/10 20:06:40;;;;;;;69.65;33.65;;;;;;;-4.23;100.00;99616.84;2096668;28;20218;-76
2021/01/10 20:07:42;;;;;;;63.10;32.17;;;;;;;-4.25;100.00;99621.44;2097200;28;20237;-75
2021/01/10 20:08:46;;;;;;;68.95;33.83;;;;;;;-4.24;100.00;99612.63;2097644;28;20732;-76
2021/01/10 20:09:47;;;;;;;65.68;33.42;;;;;;;-4.22;100.00;99615.03;2096529;28;20698;-76
2021/01/10 20:10:48;;;;;;;63.58;32.17;;;;;;;-4.23;100.00;99622.03;2096890;28;20248;-76
2021/01/10 20:11:49;;;;;;;68.97;33.10;;;;;;;-4.29;100.00;99609.75;2097599;28;20222;-76
2021/01/10 20:12:50;;;;;;;69.82;33.70;;;;;;;-4.29;100.00;99600.13;2096773;28;20226;-76
2021/01/10 20:13:53;;;;;;;61.50;35.00;;;;;;;-4.22;100.00;99613.22;2096440;28;20237;-75
2021/01/10 20:14:54;;;;;;;73.80;34.40;;;;;;;-4.23;100.00;99616.03;2096112;28;20230;-75
2021/01/10 20:15:55;;;;;;;65.07;33.00;;;;;;;-4.25;100.00;99613.63;2096579;28;20249;-75
2021/01/10 20:16:57;;;;;;;68.70;34.70;;;;;;;-4.22;100.00;99618.44;2096726;28;20249;-75
2021/01/10 20:17:58;;;;;;;73.57;33.38;;;;;;;-4.21;100.00;99620.06;2096677;28;20245;-77
2021/01/10 20:19:05;;;;;;;72.15;35.22;;;;;;;-4.22;100.00;99621.06;2097599;28;20301;-75
2021/01/10 20:20:08;;;;;;;62.65;31.95;;;;;;;-4.23;100.00;99616.03;2096658;28;20226;-75
2021/01/10 20:21:17;;;;;;;72.78;34.75;;;;;;;-4.27;100.00;99615.56;2095184;28;20222;-76
2021/01/10 20:22:18;;;;;;;69.18;34.28;;;;;;;-4.31;100.00;99609.16;2096571;28;20228;-75
2021/01/10 20:23:19;;;;;;;66.05;35.25;;;;;;;-4.36;100.00;99606.28;2096485;28;20727;-76
2021/01/10 20:24:20;;;;;;;68.33;36.43;;;;;;;-4.30;100.00;99613.34;2097378;28;20581;-75
2021/01/10 20:25:21;;;;;;;68.00;34.28;;;;;;;-4.51;100.00;99576.91;2097401;28;20672;-76
2021/01/10 20:26:30;;;;;;;67.80;35.15;;;;;;;-4.29;100.00;99605.34;2096005;28;20228;-76
2021/01/10 20:27:30;;;;;;;73.20;34.78;;;;;;;-4.29;100.00;99604.53;2097542;28;20218;-76
2021/01/10 20:28:31;;;;;;;70.60;34.87;;;;;;;-4.24;100.00;99612.63;2096352;28;20743;-75
2021/01/10 20:29:34;;;;;;;72.90;36.17;;;;;;;-4.25;100.00;99612.81;2087913;28;20223;-75
2021/01/10 20:30:36;;;;;;;69.47;35.75;;;;;;;-4.32;100.00;99602.31;2088575;28;20309;-74
2021/01/10 20:31:36;;;;;;;64.97;34.85;;;;;;;-4.33;100.00;99603.31;2096498;28;20300;-75
2021/01/10 20:32:39;;;;;;;66.07;34.42;;;;;;;-4.36;100.00;99608.88;2096820;28;20686;-77
2021/01/10 20:33:39;;;;;;;60.58;31.80;;;;;;;-4.43;100.00;99594.97;2097093;28;20584;-76
2021/01/10 20:34:41;;;;;;;72.37;33.80;;;;;;;-4.41;100.00;99603.44;2096188;28;20230;-75
2021/01/10 20:35:42;;;;;;;77.40;34.88;;;;;;;-4.43;100.00;99605.41;2096526;28;20363;-74
2021/01/10 20:36:44;;;;;;;64.33;33.43;;;;;;;-4.48;100.00;99610.38;2096341;28;20258;-75
2021/01/10 20:37:45;;;;;;;66.90;33.97;;;;;;;-4.64;100.00;99582.78;2088019;28;20226;-76
2021/01/10 20:38:46;;;;;;;65.97;34.83;;;;;;;-4.78;100.00;99566.19;2088171;28;20215;-76
2021/01/10 20:39:47;;;;;;;76.50;36.28;;;;;;;-4.54;100.00;99601.50;2096515;28;20229;-76
2021/01/10 20:40:49;;;;;;;69.83;35.73;;;;;;;-4.65;100.00;99587.16;2097059;28;20222;-75
2021/01/10 20:41:49;;;;;;;76.05;38.17;;;;;;;-4.69;100.00;99590.31;2096045;28;20230;-75
2021/01/10 20:42:51;;;;;;;86.20;38.33;;;;;;;-4.74;100.00;99583.06;2087186;28;20219;-75
2021/01/10 20:43:52;;;;;;;84.35;38.97;;;;;;;-4.72;100.00;99586.28;2095775;28;20700;-78
2021/01/10 20:44:53;;;;;;;76.77;37.43;;;;;;;-4.63;100.00;99598.19;2096422;28;20647;-77
2021/01/10 20:45:54;;;;;;;72.97;36.63;;;;;;;-4.64;100.00;99606.19;2105048;28;20444;-76
2021/01/10 20:47:00;;;;;;;71.77;38.53;;;;;;;-4.70;100.00;99594.72;2105389;28;20232;-75
2021/01/10 20:48:02;;;;;;;79.18;38.50;;;;;;;-4.65;100.00;99602.78;2105230;28;20586;-75
2021/01/10 20:49:03;;;;;;;72.35;35.45;;;;;;;-4.66;100.00;99601.19;2096282;28;20225;-75
2021/01/10 20:50:05;;;;;;;73.35;37.85;;;;;;;-4.75;100.00;99591.88;2096345;28;20229;-75
2021/01/10 20:51:07;;;;;;;71.75;37.53;;;;;;;-4.83;100.00;99576.38;2096185;28;20275;-78
2021/01/10 20:52:07;;;;;;;71.30;36.33;;;;;;;-4.69;100.00;99598.13;2087719;28;20605;-78
2021/01/10 20:53:09;;;;;;;87.17;39.80;;;;;;;-4.71;100.00;99597.50;2088313;28;20234;-77
2021/01/10 20:54:10;;;;;;;83.47;39.55;;;;;;;-4.75;100.00;99599.69;2087963;28;20235;-74
2021/01/10 20:55:11;;;;;;;81.25;40.63;;;;;;;-4.75;100.00;99604.88;2096465;28;20217;-74
2021/01/10 20:56:12;;;;;;;80.75;40.05;;;;;;;-4.90;100.00;99575.47;2096090;28;20230;-75
2021/01/10 20:57:13;;;;;;;81.83;38.70;;;;;;;-4.73;100.00;99602.91;2096116;28;20225;-78
2021/01/10 20:58:14;;;;;;;81.40;40.67;;;;;;;-4.86;100.00;99571.53;2096777;28;20226;-78
2021/01/10 20:59:15;;;;;;;79.53;39.43;;;;;;;-4.70;100.00;99599.91;2088673;28;20222;-76
2021/01/10 21:00:17;;;;;;;75.70;40.42;;;;;;;-4.63;100.00;99600.00;2088485;28;20315;-79
2021/01/10 21:01:22;;;;;;;76.75;37.75;;;;;;;-4.63;100.00;99590.38;2096429;28;20228;-76
2021/01/10 21:02:22;;;;;;;80.38;39.83;;;;;;;-4.56;100.00;99599.09;2095837;28;20226;-76
2021/01/10 21:03:24;;;;;;;75.20;37.87;;;;;;;-4.53;100.00;99599.69;2096964;28;20218;-75
2021/01/10 21:04:25;;;;;;;72.55;38.78;;;;;;;-4.60;100.00;99597.84;2096933;28;20233;-75
2021/01/10 21:05:29;;;;;;;71.97;38.00;;;;;;;-4.69;100.00;99575.53;2096924;28;20664;-78
2021/01/10 21:06:31;;;;;;;80.15;39.88;;;;;;;-4.53;100.00;99599.69;2096043;28;20218;-78
2021/01/10 21:07:32;;;;;;;74.20;38.10;;;;;;;-4.60;100.00;99589.22;2095866;28;20300;-74
2021/01/10 21:08:33;;;;;;;74.70;39.05;;;;;;;-4.56;100.00;99593.06;2096094;28;20823;-76
2021/01/10 21:09:34;;;;;;;76.73;37.63;;;;;;;-4.47;100.00;99601.56;2096165;28;20646;-74
2021/01/10 21:10:35;;;;;;;80.15;40.17;;;;;;;-4.43;100.00;99601.03;2097040;28;20625;-74
2021/01/10 21:11:37;;;;;;;78.00;38.60;;;;;;;-4.40;100.00;99603.25;2096274;28;20287;-74
2021/01/10 21:12:41;;;;;;;83.50;40.58;;;;;;;-4.49;100.00;99588.75;2087505;28;20231;-76
2021/01/10 21:13:43;;;;;;;93.43;45.40;;;;;;;-4.41;100.00;99598.22;2096090;28;20230;-76
2021/01/10 21:14:45;;;;;;;92.97;44.35;;;;;;;-4.34;100.00;99602.50;2097037;28;20224;-75
2021/01/10 21:15:46;;;;;;;77.93;42.40;;;;;;;-4.33;100.00;99600.72;2097036;28;20225;-73
2021/01/10 21:16:47;;;;;;;83.72;41.88;;;;;;;-4.40;100.00;99594.63;2097024;28;20225;-74
2021/01/10 21:17:49;;;;;;;80.90;41.03;;;;;;;-4.32;100.00;99607.53;2096903;28;20234;-74
2021/01/10 21:18:51;;;;;;;73.88;40.90;;;;;;;-4.38;100.00;99608.28;2096885;28;20229;-76
2021/01/10 21:19:53;;;;;;;77.15;41.08;;;;;;;-4.40;100.00;99600.66;2096641;28;20218;-75
2021/01/10 21:20:54;;;;;;;70.53;37.72;;;;;;;-4.36;100.00;99606.28;2096157;28;20221;-74
2021/01/10 21:21:55;;;;;;;75.37;38.43;;;;;;;-4.38;100.00;99611.69;2087801;28;20229;-74
2021/01/10 21:22:56;;;;;;;76.95;37.55;;;;;;;-4.43;100.00;99603.63;2087715;28;20357;-74
2021/01/10 21:23:57;;;;;;;80.00;40.73;;;;;;;-4.46;100.00;99601.38;2096059;28;20743;-75
2021/01/10 21:24:58;;;;;;;76.93;39.17;;;;;;;-4.55;100.00;99592.88;2097080;28;20231;-75
2021/01/10 21:25:59;;;;;;;78.00;39.43;;;;;;;-4.40;100.00;99605.03;2097028;28;20338;-75
2021/01/10 21:27:03;;;;;;;80.00;39.28;;;;;;;-4.40;100.00;99610.25;2096462;28;20218;-75
2021/01/10 21:28:05;;;;;;;81.38;38.67;;;;;;;-4.45;100.00;99592.56;2095987;28;20286;-74
2021/01/10 21:29:07;;;;;;;70.82;33.42;;;;;;;-4.42;100.00;99601.84;2096150;28;20222;-74
2021/01/10 21:30:10;;;;;;;77.65;36.78;;;;;;;-4.42;100.00;99591.41;2095887;28;20230;-74
2021/01/10 21:31:13;;;;;;;68.75;34.42;;;;;;;-4.43;100.00;99590.59;2096993;28;20226;-74
2021/01/10 21:32:14;;;;;;;68.28;35.20;;;;;;;-4.44;100.00;99598.59;2096098;28;20222;-74
2021/01/10 21:33:15;;;;;;;69.82;37.45;;;;;;;-4.45;100.00;99591.78;2096254;28;20252;-74
2021/01/10 21:34:17;;;;;;;76.00;39.20;;;;;;;-4.47;100.00;99585.94;2096909;28;20222;-76
2021/01/10 21:35:18;;;;;;;75.15;37.10;;;;;;;-4.50;100.00;99586.31;2096734;28;20246;-74
2021/01/10 21:36:26;;;;;;;75.50;38.07;;;;;;;-4.42;100.00;99591.41;2096810;28;20217;-75
2021/01/10 21:37:27;;;;;;;70.75;34.72;;;;;;;-4.49;100.00;99580.13;2096684;28;20232;-74
2021/01/10 21:38:29;;;;;;;63.13;32.13;;;;;;;-4.42;100.00;99596.63;2096807;28;20221;-75
2021/01/10 21:39:29;;;;;;;67.10;33.25;;;;;;;-4.46;100.00;99590.97;2096975;28;20769;-75
2021/01/10 21:40:30;;;;;;;70.77;33.37;;;;;;;-4.49;100.00;99601.75;2095903;28;20286;-74
2021/01/10 21:41:31;;;;;;;67.78;33.33;;;;;;;-4.52;100.00;99583.06;2096124;28;20668;-75
2021/01/10 21:42:35;;;;;;;63.30;33.30;;;;;;;-4.49;100.00;99591.34;2096707;28;20261;-75
2021/01/10 21:43:36;;;;;;;67.53;35.08;;;;;;;-4.48;100.00;99592.16;2096816;28;20669;-74
2021/01/10 21:44:37;;;;;;;62.07;32.83;;;;;;;-4.51;100.00;99593.34;2096453;28;20563;-75
2021/01/10 21:45:38;;;;;;;67.63;33.80;;;;;;;-4.55;100.00;99594.69;2096075;28;20221;-75
2021/01/10 21:46:40;;;;;;;70.53;33.90;;;;;;;-4.60;100.00;99581.44;2087910;28;20245;-74
2021/01/10 21:47:41;;;;;;;72.68;36.70;;;;;;;-4.59;100.00;99591.66;2087913;28;20281;-75
2021/01/10 21:48:42;;;;;;;77.93;39.70;;;;;;;-4.62;100.00;99591.19;2096193;28;20750;-76
2021/01/10 21:49:44;;;;;;;78.68;37.90;;;;;;;-4.56;100.00;99596.47;2096925;28;20226;-75
2021/01/10 21:50:45;;;;;;;75.47;38.28;;;;;;;-4.52;100.00;99599.50;2096705;28;20585;-77
2021/01/10 21:51:46;;;;;;;80.80;38.50;;;;;;;-4.51;100.00;99592.53;2095976;28;20249;-76
2021/01/10 21:52:47;;;;;;;74.53;38.90;;;;;;;-4.48;100.00;99585.13;2096142;28;20237;-77
2021/01/10 21:53:49;;;;;;;73.07;37.55;;;;;;;-4.42;100.00;99586.22;2095949;28;20222;-76
2021/01/10 21:54:51;;;;;;;70.18;37.25;;;;;;;-4.41;100.00;99587.81;2088031;28;20223;-76
2021/01/10 21:55:52;;;;;;;68.55;35.65;;;;;;;-4.38;100.00;99588.22;2095572;28;20229;-75
2021/01/10 21:56:54;;;;;;;78.20;38.28;;;;;;;-4.40;100.00;99590.22;2096116;28;20323;-73
2021/01/10 21:57:54;;;;;;;71.55;36.33;;;;;;;-4.38;100.00;99590.84;2102767;28;20274;-74
2021/01/10 21:58:56;;;;;;;73.43;36.53;;;;;;;-4.39;100.00;99585.81;2104759;28;20359;-73
2021/01/10 21:59:56;;;;;;;75.18;37.25;;;;;;;-4.41;100.00;99588.63;2095969;28;20221;-73
2021/01/10 22:00:57;;;;;;;73.07;36.10;;;;;;;-4.40;100.00;99586.81;2095680;28;20250;-73
2021/01/10 22:01:58;;;;;;;71.07;35.63;;;;;;;-4.41;100.00;99577.41;2096084;28;20218;-73
2021/01/10 22:02:59;;;;;;;73.20;38.73;;;;;;;-4.35;100.00;99590.47;2087831;28;20238;-73
2021/01/10 22:04:00;;;;;;;74.20;37.33;;;;;;;-4.40;100.00;99585.03;2096095;28;20224;-73
2021/01/10 22:05:03;;;;;;;76.85;36.80;;;;;;;-4.43;100.00;99581.97;2095579;28;20222;-73
2021/01/10 22:06:08;;;;;;;69.72;37.10;;;;;;;-4.39;100.00;99585.81;2096294;28;20633;-72
2021/01/10 22:07:09;;;;;;;64.70;35.20;;;;;;;-4.42;100.00;99579.19;2095849;28;20661;-72
2021/01/10 22:08:10;;;;;;;72.78;39.10;;;;;;;-4.46;100.00;99575.34;2095861;28;20226;-73
2021/01/10 22:09:11;;;;;;;72.77;37.57;;;;;;;-4.39;100.00;99589.22;2087606;28;20249;-72
2021/01/10 22:10:12;;;;;;;76.55;36.08;;;;;;;-4.38;100.00;99595.25;2096213;28;20326;-73
2021/01/10 22:11:14;;;;;;;70.50;34.95;;;;;;;-4.42;100.00;99597.44;2096794;28;20229;-73
2021/01/10 22:12:15;;;;;;;66.55;34.90;;;;;;;-4.40;100.00;99589.44;2096795;28;20225;-73
2021/01/10 22:13:16;;;;;;;66.77;35.00;;;;;;;-4.45;100.00;99584.75;2095173;28;20238;-72
2021/01/10 22:14:17;;;;;;;73.97;35.08;;;;;;;-4.42;100.00;99600.03;2087664;28;20219;-72
2021/01/10 22:15:18;;;;;;;63.90;33.93;;;;;;;-4.43;100.00;99592.38;2096142;28;20226;-72
2021/01/10 22:16:20;;;;;;;66.03;34.28;;;;;;;-4.43;100.00;99598.44;2096713;28;20716;-72
2021/01/10 22:17:21;;;;;;;66.95;33.63;;;;;;;-4.45;100.00;99587.38;2095961;28;20295;-72
2021/01/10 22:18:22;;;;;;;66.38;34.70;;;;;;;-4.44;100.00;99593.38;2095684;28;20233;-72
2021/01/10 22:19:24;;;;;;;70.50;34.45;;;;;;;-4.44;100.00;99588.16;2104897;28;20714;-73
2021/01/10 22:20:25;;;;;;;72.03;36.20;;;;;;;-4.47;100.00;99581.53;2095361;28;20233;-72
2021/01/10 22:21:26;;;;;;;67.38;35.60;;;;;;;-4.46;100.00;99590.97;2096121;28;20603;-72
2021/01/10 22:22:27;;;;;;;81.95;35.00;;;;;;;-4.46;100.00;99595.38;2104783;28;20222;-72
2021/01/10 22:23:28;;;;;;;64.87;35.60;;;;;;;-4.48;100.00;99592.16;2104733;28;20217;-72
2021/01/10 22:24:29;;;;;;;71.88;35.28;;;;;;;-4.49;100.00;99595.75;2104887;28;20671;-72
2021/01/10 22:25:30;;;;;;;68.47;35.93;;;;;;;-4.58;100.00;99588.06;2104484;28;20618;-73
2021/01/10 22:26:32;;;;;;;70.07;35.05;;;;;;;-4.55;100.00;99586.88;2105042;28;20290;-72
2021/01/10 22:27:33;;;;;;;71.47;36.05;;;;;;;-4.50;100.00;99594.94;2095131;28;20605;-73
2021/01/10 22:28:36;;;;;;;69.82;36.88;;;;;;;-4.49;100.00;99591.34;2095776;28;20305;-73
2021/01/10 22:29:37;;;;;;;75.38;37.72;;;;;;;-4.48;100.00;99595.56;2093406;28;20226;-74
2021/01/10 22:30:39;;;;;;;70.82;38.28;;;;;;;-4.49;100.00;99599.16;2087204;28;20648;-73
2021/01/10 22:31:40;;;;;;;73.13;37.72;;;;;;;-4.64;100.00;99577.56;2095986;28;20570;-73
2021/01/10 22:32:41;;;;;;;80.75;39.50;;;;;;;-4.55;100.00;99592.06;2096755;28;20218;-73
2021/01/10 22:33:42;;;;;;;74.93;38.67;;;;;;;-4.66;100.00;99577.75;2096710;28;20776;-74
2021/01/10 22:34:43;;;;;;;83.20;41.53;;;;;;;-4.52;100.00;99598.69;2096548;28;20218;-73
2021/01/10 22:35:45;;;;;;;94.77;41.80;;;;;;;-4.55;100.00;99592.06;2095100;28;20225;-73
2021/01/10 22:36:45;;;;;;;88.55;42.40;;;;;;;-4.52;100.00;99590.88;2087694;28;20763;-74
2021/01/10 22:37:47;;;;;;;84.87;40.67;;;;;;;-4.54;100.00;99598.88;2095818;28;20575;-74